createdAt,value
2023-05-03T00:00:51.481Z,29.23
2023-05-03T00:03:23.022Z,32.23
2023-05-03T00:05:51.253Z,28.93
2023-05-03T00:08:19.160Z,33.73
2023-05-03T00:10:47.457Z,32.60
2023-05-03T00:13:15.719Z,38.40
2023-05-03T00:15:44.117Z,36.80
2023-05-03T00:18:12.075Z,46.07
2023-05-03T00:20:41.694Z,41.20
2023-05-03T00:23:10.000Z,41.97
2023-05-03T00:25:37.878Z,40.50
2023-05-03T00:28:06.157Z,39.00
2023-05-03T00:30:34.115Z,38.00
2023-05-03T00:33:02.652Z,41.43
2023-05-03T00:35:30.680Z,40.20
2023-05-03T00:38:00.039Z,37.03
2023-05-03T00:40:28.469Z,39.43
2023-05-03T00:42:56.387Z,36.60
2023-05-03T00:45:24.715Z,39.13
2023-05-03T00:47:52.830Z,37.93
2023-05-03T00:50:21.945Z,37.90
2023-05-03T00:52:50.005Z,37.63
2023-05-03T00:55:19.412Z,37.80
2023-05-03T00:57:47.407Z,43.33
2023-05-03T01:00:17.046Z,40.37
2023-05-03T01:02:45.079Z,37.43
2023-05-03T01:05:13.855Z,35.47
2023-05-03T01:07:46.982Z,32.43
2023-05-03T01:10:22.520Z,36.97
2023-05-03T01:12:54.913Z,29.63
2023-05-03T01:15:27.300Z,31.47
2023-05-03T01:18:01.786Z,29.23
2023-05-03T01:20:30.988Z,28.83
2023-05-03T01:23:03.335Z,28.87
2023-05-03T01:25:32.963Z,30.53
2023-05-03T01:28:01.531Z,25.33
2023-05-03T01:30:30.032Z,25.97
2023-05-03T01:33:00.929Z,31.87
2023-05-03T01:35:31.503Z,25.90
2023-05-03T01:37:59.527Z,22.60
2023-05-03T01:40:28.075Z,22.00
2023-05-03T01:42:58.249Z,23.03
2023-05-03T01:45:26.268Z,22.47
2023-05-03T01:47:54.364Z,29.23
2023-05-03T01:50:22.415Z,20.67
2023-05-03T01:52:52.916Z,18.97
2023-05-03T01:55:21.011Z,21.00
2023-05-03T01:57:49.548Z,20.60
2023-05-03T02:00:19.198Z,21.13
2023-05-03T02:02:47.710Z,19.67
2023-05-03T02:05:15.896Z,17.80
2023-05-03T02:07:43.873Z,18.50
2023-05-03T02:10:15.080Z,17.73
2023-05-03T02:12:43.148Z,17.37
2023-05-03T02:15:12.373Z,18.07
2023-05-03T02:17:42.352Z,19.00
2023-05-03T02:20:11.256Z,16.20
2023-05-03T02:22:39.175Z,17.10
2023-05-03T02:25:07.633Z,17.00
2023-05-03T02:27:36.185Z,12.83
2023-05-03T02:30:05.014Z,22.63
2023-05-03T02:32:33.561Z,14.17
2023-05-03T02:35:03.418Z,13.60
2023-05-03T02:37:31.392Z,12.90
2023-05-03T02:39:59.619Z,12.17
2023-05-03T02:42:27.590Z,13.50
2023-05-03T02:44:55.663Z,10.93
2023-05-03T02:47:23.772Z,12.00
2023-05-03T02:49:51.695Z,14.60
2023-05-03T02:52:21.237Z,11.10
2023-05-03T02:54:49.689Z,9.97
2023-05-03T02:57:17.707Z,9.30
2023-05-03T02:59:45.869Z,10.43
2023-05-03T03:02:13.936Z,12.33
2023-05-03T03:04:41.907Z,12.63
2023-05-03T03:07:09.880Z,10.93
2023-05-03T03:09:39.318Z,8.37
2023-05-03T03:12:07.388Z,10.33
2023-05-03T03:14:35.296Z,9.30
2023-05-03T03:17:03.452Z,11.03
2023-05-03T03:19:31.513Z,9.60
2023-05-03T03:21:59.623Z,7.77
2023-05-03T03:24:28.265Z,10.73
2023-05-03T03:26:58.213Z,7.70
2023-05-03T03:29:26.212Z,8.60
2023-05-03T03:31:54.232Z,6.87
2023-05-03T03:34:22.269Z,6.93
2023-05-03T03:36:50.686Z,8.17
2023-05-03T03:39:18.653Z,6.67
2023-05-03T03:41:46.688Z,7.70
2023-05-03T03:44:16.535Z,5.30
2023-05-03T03:46:44.651Z,6.03
2023-05-03T03:49:12.646Z,7.13
2023-05-03T03:51:40.684Z,6.13
2023-05-03T03:54:08.571Z,6.53
2023-05-03T03:56:37.103Z,5.40
2023-05-03T03:59:05.116Z,6.40
2023-05-03T04:01:35.198Z,6.93
2023-05-03T04:04:03.321Z,5.00
2023-05-03T04:06:33.039Z,9.03
2023-05-03T04:09:01.294Z,4.70
2023-05-03T04:11:29.617Z,5.17
2023-05-03T04:13:57.747Z,8.33
2023-05-03T04:16:26.150Z,4.07
2023-05-03T04:18:55.566Z,5.97
2023-05-03T04:21:23.571Z,4.33
2023-05-03T04:23:52.081Z,6.70
2023-05-03T04:26:31.200Z,3.93
2023-05-03T04:29:00.358Z,5.87
2023-05-03T04:31:29.071Z,3.80
2023-05-03T04:33:58.960Z,4.60
2023-05-03T04:36:29.861Z,4.90
2023-05-03T04:38:57.882Z,4.70
2023-05-03T04:41:25.907Z,3.90
2023-05-03T04:43:54.469Z,2.90
2023-05-03T04:46:22.585Z,3.77
2023-05-03T04:48:50.665Z,3.30
2023-05-03T04:51:20.451Z,3.27
2023-05-03T04:53:48.480Z,4.43
2023-05-03T04:56:16.560Z,2.70
2023-05-03T04:58:45.096Z,4.70
2023-05-03T05:01:13.942Z,3.00
2023-05-03T05:03:42.677Z,5.57
2023-05-03T05:06:12.517Z,3.10
2023-05-03T05:08:42.185Z,3.73
2023-05-03T05:11:10.694Z,5.63
2023-05-03T05:13:38.651Z,3.33
2023-05-03T05:16:07.269Z,3.77
2023-05-03T05:18:35.228Z,6.13
2023-05-03T05:21:03.790Z,3.53
2023-05-03T05:23:31.797Z,2.77
2023-05-03T05:26:01.206Z,2.37
2023-05-03T05:28:29.136Z,3.20
2023-05-03T05:30:57.492Z,2.73
2023-05-03T05:33:26.065Z,6.30
2023-05-03T05:35:53.955Z,2.50
2023-05-03T05:38:22.887Z,4.13
2023-05-03T05:40:50.901Z,2.80
2023-05-03T05:43:20.198Z,6.20
2023-05-03T05:45:48.558Z,2.70
2023-05-03T05:48:16.601Z,2.90
2023-05-03T05:50:44.653Z,2.53
2023-05-03T05:53:12.622Z,2.50
2023-05-03T05:55:40.962Z,3.40
2023-05-03T05:58:09.710Z,2.37
2023-05-03T06:00:39.100Z,2.10
2023-05-03T06:03:07.629Z,2.83
2023-05-03T06:05:35.830Z,3.63
2023-05-03T06:08:04.600Z,2.90
2023-05-03T06:10:32.540Z,2.90
2023-05-03T06:13:00.539Z,2.90
2023-05-03T06:15:28.531Z,2.43
2023-05-03T06:17:58.501Z,2.47
2023-05-03T06:20:26.584Z,2.17
2023-05-03T06:22:54.629Z,4.13
2023-05-03T06:25:22.691Z,2.57
2023-05-03T06:27:50.686Z,3.10
2023-05-03T06:30:18.611Z,2.40
2023-05-03T06:32:48.431Z,3.13
2023-05-03T06:35:19.366Z,2.20
2023-05-03T06:37:47.485Z,2.03
2023-05-03T06:40:16.074Z,4.20
2023-05-03T06:42:44.507Z,1.90
2023-05-03T06:45:12.930Z,2.53
2023-05-03T06:47:43.093Z,1.90
2023-05-03T06:50:11.941Z,3.03
2023-05-03T06:52:41.382Z,3.83
2023-05-03T06:55:09.923Z,2.90
2023-05-03T06:57:37.895Z,1.90
2023-05-03T07:00:07.443Z,2.33
2023-05-03T07:02:35.552Z,2.00
2023-05-03T07:05:03.934Z,2.90
2023-05-03T07:07:31.908Z,3.27
2023-05-03T07:10:01.625Z,2.23
2023-05-03T07:12:30.065Z,2.57
2023-05-03T07:14:58.145Z,3.83
2023-05-03T07:17:26.340Z,2.20
2023-05-03T07:19:54.446Z,2.33
2023-05-03T07:22:24.904Z,2.40
2023-05-03T07:24:54.580Z,2.30
2023-05-03T07:27:24.318Z,2.83
2023-05-03T07:29:52.283Z,2.50
2023-05-03T07:32:21.821Z,3.40
2023-05-03T07:34:50.268Z,2.50
2023-05-03T07:37:18.354Z,2.30
2023-05-03T07:39:46.598Z,2.50
2023-05-03T07:42:14.561Z,2.90
2023-05-03T07:44:44.234Z,3.27
2023-05-03T07:47:12.386Z,5.00
2023-05-03T07:49:40.407Z,3.30
2023-05-03T07:52:08.446Z,2.70
2023-05-03T07:54:36.461Z,2.90
2023-05-03T07:57:04.476Z,2.90
2023-05-03T07:59:32.405Z,3.53
2023-05-03T08:02:02.151Z,3.27
2023-05-03T08:04:30.713Z,3.40
2023-05-03T08:07:01.925Z,2.80
2023-05-03T08:09:30.009Z,3.60
2023-05-03T08:11:58.147Z,2.60
2023-05-03T08:14:27.920Z,3.13
2023-05-03T08:16:56.077Z,2.90
2023-05-03T08:19:25.570Z,5.83
2023-05-03T08:21:54.856Z,3.50
2023-05-03T08:24:22.895Z,2.60
2023-05-03T08:26:51.208Z,3.13
2023-05-03T08:29:19.237Z,2.60
2023-05-03T08:31:47.383Z,3.27
2023-05-03T08:34:15.774Z,3.00
2023-05-03T08:36:45.649Z,2.93
2023-05-03T08:39:15.446Z,2.53
2023-05-03T08:41:43.556Z,2.60
2023-05-03T08:44:13.558Z,3.17
2023-05-03T08:46:43.979Z,2.80
2023-05-03T08:49:12.101Z,2.70
2023-05-03T08:51:40.232Z,3.03
2023-05-03T08:54:10.138Z,2.87
2023-05-03T08:56:41.499Z,2.60
2023-05-03T08:59:10.041Z,2.73
2023-05-03T09:01:38.385Z,2.80
2023-05-03T09:04:06.655Z,2.70
2023-05-03T09:06:35.129Z,3.80
2023-05-03T09:09:05.428Z,2.43
2023-05-03T09:11:36.478Z,3.30
2023-05-03T09:14:11.360Z,3.90
2023-05-03T09:16:39.863Z,3.20
2023-05-03T09:19:09.681Z,2.83
2023-05-03T09:21:37.796Z,3.07
2023-05-03T09:24:14.022Z,2.50
2023-05-03T09:26:43.388Z,2.60
2023-05-03T09:29:11.536Z,5.43
2023-05-03T09:31:39.719Z,2.30
2023-05-03T09:34:22.457Z,3.90
2023-05-03T09:36:50.556Z,2.33
2023-05-03T09:39:18.676Z,2.50
2023-05-03T09:41:48.204Z,2.47
2023-05-03T09:44:16.569Z,2.40
2023-05-03T09:47:05.539Z,2.17
2023-05-03T09:49:33.838Z,2.43
2023-05-03T09:52:02.645Z,2.50
2023-05-03T09:54:31.455Z,2.23
2023-05-03T09:57:02.478Z,2.40
2023-05-03T09:59:30.891Z,2.57
2023-05-03T10:01:59.917Z,2.53
2023-05-03T10:04:28.809Z,7.10
2023-05-03T10:07:00.656Z,3.90
2023-05-03T10:09:32.264Z,2.33
2023-05-03T10:12:02.317Z,2.23
2023-05-03T10:14:30.366Z,4.07
2023-05-03T10:17:01.358Z,2.60
2023-05-03T10:19:32.537Z,2.80
2023-05-03T10:22:04.628Z,2.07
2023-05-03T10:24:32.730Z,2.30
2023-05-03T10:27:02.424Z,3.73
2023-05-03T10:29:49.975Z,3.37
2023-05-03T10:32:37.389Z,2.60
2023-05-03T10:35:06.852Z,2.53
2023-05-03T10:37:36.145Z,4.13
2023-05-03T10:40:11.632Z,2.47
2023-05-03T10:42:44.144Z,2.53
2023-05-03T10:45:21.778Z,2.03
2023-05-03T10:48:22.952Z,2.10
2023-05-03T10:50:52.146Z,2.10
2023-05-03T10:53:39.387Z,2.00
2023-05-03T10:56:09.487Z,1.73
2023-05-03T10:58:39.417Z,2.07
2023-05-03T11:01:07.699Z,4.60
2023-05-03T11:03:38.040Z,4.87
2023-05-03T11:06:06.387Z,6.43
2023-05-03T11:08:37.978Z,3.63
2023-05-03T11:11:09.805Z,3.57
2023-05-03T11:13:40.000Z,6.83
2023-05-03T11:16:08.614Z,1.90
2023-05-03T11:18:37.074Z,2.27
2023-05-03T11:21:05.513Z,6.83
2023-05-03T11:23:33.369Z,6.03
2023-05-03T11:26:01.262Z,2.90
2023-05-03T11:28:29.410Z,1.70
2023-05-03T11:30:59.160Z,2.90
2023-05-03T11:33:28.419Z,1.80
2023-05-03T11:35:56.906Z,1.40
2023-05-03T11:38:24.766Z,1.60
2023-05-03T11:40:53.185Z,1.53
2023-05-03T11:43:21.521Z,1.83
2023-05-03T11:45:49.502Z,2.07
2023-05-03T11:48:18.992Z,2.10
2023-05-03T11:50:47.787Z,2.77
2023-05-03T11:53:15.816Z,6.77
2023-05-03T11:55:44.380Z,1.80
2023-05-03T11:58:14.664Z,1.80
2023-05-03T12:00:45.641Z,2.90
2023-05-03T12:03:20.032Z,2.00
2023-05-03T12:05:49.708Z,1.30
2023-05-03T12:08:22.158Z,2.83
2023-05-03T12:10:55.290Z,5.03
2023-05-03T12:13:33.329Z,1.40
2023-05-03T12:18:50.588Z,1.63
2023-05-03T12:23:51.774Z,8.53
2023-05-03T12:26:20.149Z,1.93
2023-05-03T12:28:48.962Z,1.70
2023-05-03T12:31:18.304Z,5.17
2023-05-03T12:34:05.960Z,1.93
2023-05-03T12:36:39.009Z,6.63
2023-05-03T12:39:10.142Z,1.73
2023-05-03T12:42:06.116Z,5.70
2023-05-03T12:44:33.256Z,1.60
2023-05-03T12:47:03.515Z,2.80
2023-05-03T12:49:37.070Z,9.23
2023-05-03T12:52:35.491Z,10.63
2023-05-03T12:54:55.869Z,5.27
2023-05-03T12:57:24.618Z,7.90
2023-05-03T13:00:02.062Z,5.53
2023-05-03T13:05:08.474Z,4.20
2023-05-03T13:07:42.968Z,8.30
2023-05-03T13:12:42.598Z,1.70
2023-05-03T13:15:11.501Z,5.17
2023-05-03T13:17:39.468Z,3.27
2023-05-03T13:20:12.597Z,2.20
2023-05-03T13:22:40.553Z,7.67
2023-05-03T13:25:09.594Z,3.83
2023-05-03T13:27:37.652Z,3.43
2023-05-03T13:30:06.371Z,9.40
2023-05-03T13:32:34.883Z,3.23
2023-05-03T13:35:03.267Z,4.67
2023-05-03T13:37:32.701Z,4.70
2023-05-03T13:40:01.363Z,2.50
2023-05-03T13:42:29.559Z,8.23
2023-05-03T13:44:57.908Z,1.60
2023-05-03T13:47:29.222Z,4.97
2023-05-03T13:50:01.558Z,2.83
2023-05-03T13:52:29.706Z,1.50
2023-05-03T13:55:00.598Z,2.93
2023-05-03T13:57:29.190Z,2.13
2023-05-03T13:59:57.197Z,2.50
2023-05-03T14:02:25.633Z,1.63
2023-05-03T14:04:54.205Z,2.20
2023-05-03T14:07:22.157Z,1.50
2023-05-03T14:09:50.095Z,2.20
2023-05-03T14:12:19.760Z,2.00
2023-05-03T14:14:48.114Z,1.77
2023-05-03T14:17:16.172Z,2.27
2023-05-03T14:19:44.242Z,4.80
2023-05-03T14:22:12.194Z,1.70
2023-05-03T14:24:43.065Z,1.87
2023-05-03T14:27:11.010Z,3.17
2023-05-03T14:29:40.340Z,3.73
2023-05-03T14:32:08.780Z,3.50
2023-05-03T14:34:36.926Z,1.40
2023-05-03T14:37:04.849Z,1.77
2023-05-03T14:39:32.844Z,3.20
2023-05-03T14:42:01.258Z,1.53
2023-05-03T14:44:29.444Z,3.20
2023-05-03T14:46:59.479Z,1.33
2023-05-03T14:49:27.366Z,1.50
2023-05-03T14:51:55.346Z,1.90
2023-05-03T14:54:24.143Z,3.23
2023-05-03T14:56:52.087Z,3.43
2023-05-03T14:59:19.978Z,3.17
2023-05-03T15:01:47.882Z,1.90
2023-05-03T15:04:17.096Z,1.77
2023-05-03T15:06:44.912Z,3.30
2023-05-03T15:09:13.688Z,2.10
2023-05-03T15:11:41.588Z,3.33
2023-05-03T15:14:10.555Z,2.13
2023-05-03T15:16:38.631Z,1.40
2023-05-03T15:19:07.836Z,2.80
2023-05-03T15:21:47.490Z,2.67
2023-05-03T15:24:15.660Z,1.43
2023-05-03T15:26:43.679Z,1.53
2023-05-03T15:29:11.804Z,1.83
2023-05-03T15:31:40.450Z,1.70
2023-05-03T15:34:08.656Z,1.70
2023-05-03T15:36:37.254Z,1.50
2023-05-03T15:39:06.811Z,3.87
2023-05-03T15:41:35.216Z,3.47
2023-05-03T15:44:05.409Z,3.90
2023-05-03T15:46:34.031Z,4.10
2023-05-03T15:49:02.152Z,4.70
2023-05-03T15:51:33.345Z,5.00
2023-05-03T15:54:01.671Z,4.13
2023-05-03T15:56:31.690Z,12.53
2023-05-03T15:58:59.674Z,8.73
2023-05-03T16:01:27.960Z,11.10
2023-05-03T16:03:56.126Z,7.40
2023-05-03T16:06:25.781Z,2.10
2023-05-03T16:08:54.403Z,7.20
2023-05-03T16:11:23.989Z,2.47
2023-05-03T16:13:53.879Z,2.30
2023-05-03T16:16:25.457Z,2.80
2023-05-03T16:18:53.659Z,6.83
2023-05-03T16:21:21.737Z,14.53
2023-05-03T16:23:49.986Z,3.67
2023-05-03T16:26:21.466Z,6.50
2023-05-03T16:28:59.645Z,5.50
2023-05-03T16:31:33.735Z,4.53
2023-05-03T16:34:05.052Z,10.77
2023-05-03T16:36:33.854Z,9.97
2023-05-03T16:39:06.318Z,9.67
2023-05-03T16:41:34.461Z,9.73
2023-05-03T16:44:05.345Z,6.90
2023-05-03T16:46:35.246Z,4.80
2023-05-03T16:49:03.300Z,5.97
2023-05-03T16:51:31.936Z,13.50
2023-05-03T16:54:01.622Z,13.17
2023-05-03T16:56:31.495Z,17.33
2023-05-03T16:59:00.127Z,7.10
2023-05-03T17:01:29.541Z,24.50
2023-05-03T17:03:57.550Z,10.65
2023-05-03T17:06:26.807Z,8.60
2023-05-03T17:08:54.880Z,5.23
2023-05-03T17:11:24.174Z,7.83
2023-05-03T17:13:52.212Z,8.97
2023-05-03T17:16:21.860Z,5.20
2023-05-03T17:18:52.039Z,7.70
2023-05-03T17:21:20.125Z,3.70
2023-05-03T17:23:48.525Z,11.77
2023-05-03T17:26:16.556Z,6.27
2023-05-03T17:28:44.831Z,6.53
2023-05-03T17:31:13.862Z,37.37
2023-05-03T17:33:41.846Z,11.33
2023-05-03T17:36:11.914Z,9.50
2023-05-03T17:38:40.039Z,25.70
2023-05-03T17:41:08.578Z,21.83
2023-05-03T17:43:36.589Z,12.60
2023-05-03T17:46:10.885Z,14.47
2023-05-03T17:48:40.511Z,15.07
2023-05-03T17:51:09.565Z,16.33
2023-05-03T17:53:39.574Z,7.00
2023-05-03T17:56:13.964Z,5.80
2023-05-03T17:58:42.658Z,7.90
2023-05-03T18:01:11.220Z,7.73
2023-05-03T18:03:39.397Z,14.57
2023-05-03T18:06:09.268Z,7.27
2023-05-03T18:08:38.844Z,10.80
2023-05-03T18:11:07.691Z,7.83
2023-05-03T18:13:36.672Z,22.23
2023-05-03T18:16:07.745Z,6.50
2023-05-03T18:18:36.138Z,11.17
2023-05-03T18:21:05.092Z,9.73
2023-05-03T18:23:33.816Z,11.93
2023-05-03T18:26:03.937Z,19.17
2023-05-03T18:28:32.355Z,7.43
2023-05-03T18:31:00.392Z,15.57
2023-05-03T18:33:28.486Z,9.60
2023-05-03T18:35:56.393Z,10.27
2023-05-03T18:38:24.458Z,8.37
2023-05-03T18:40:52.419Z,13.07
2023-05-03T18:43:24.339Z,7.80
2023-05-03T18:45:52.666Z,9.53
2023-05-03T18:48:21.134Z,18.80
2023-05-03T18:50:49.309Z,15.70
2023-05-03T18:53:17.666Z,15.23
2023-05-03T18:55:46.011Z,16.00
2023-05-03T18:58:13.999Z,19.13
2023-05-03T19:00:43.800Z,17.90
2023-05-03T19:03:12.040Z,19.97
2023-05-03T19:05:40.469Z,16.07
2023-05-03T19:08:08.792Z,18.03
2023-05-03T19:10:37.127Z,11.00
2023-05-03T19:13:05.363Z,12.13
2023-05-03T19:15:34.719Z,15.87
2023-05-03T19:18:04.067Z,16.03
2023-05-03T19:20:32.527Z,8.43
2023-05-03T19:23:00.621Z,11.10
2023-05-03T19:25:28.947Z,9.20
2023-05-03T19:27:56.954Z,5.90
2023-05-03T19:30:25.857Z,14.07
2023-05-03T19:32:53.995Z,7.83
2023-05-03T19:35:26.157Z,8.47
2023-05-03T19:37:54.182Z,8.23
2023-05-03T19:40:23.209Z,9.67
2023-05-03T19:42:52.489Z,6.43
2023-05-03T19:45:20.759Z,5.67
2023-05-03T19:47:48.645Z,13.67
2023-05-03T19:50:16.844Z,7.00
2023-05-03T19:52:46.767Z,9.50
2023-05-03T19:55:15.658Z,13.17
2023-05-03T19:57:43.745Z,12.70
2023-05-03T20:00:14.396Z,12.40
2023-05-03T20:02:42.944Z,7.77
2023-05-03T20:05:11.125Z,22.50
2023-05-03T20:07:39.369Z,6.70
2023-05-03T20:10:09.798Z,10.87
2023-05-03T20:12:37.847Z,17.73
2023-05-03T20:15:07.146Z,4.40
2023-05-03T20:17:35.152Z,7.13
2023-05-03T20:20:07.982Z,6.60
2023-05-03T20:22:38.210Z,7.90
2023-05-03T20:25:09.184Z,10.43
2023-05-03T20:27:37.362Z,3.80
2023-05-03T20:30:06.598Z,9.10
2023-05-03T20:32:36.351Z,6.53
2023-05-03T20:35:04.918Z,6.07
2023-05-03T20:37:33.203Z,15.57
2023-05-03T20:40:01.395Z,8.00
2023-05-03T20:42:31.772Z,3.97
2023-05-03T20:44:59.853Z,6.40
2023-05-03T20:47:28.467Z,6.93
2023-05-03T20:49:56.581Z,10.80
2023-05-03T20:52:24.939Z,8.13
2023-05-03T20:54:53.328Z,6.50
2023-05-03T20:57:21.351Z,7.57
2023-05-03T20:59:50.888Z,8.63
2023-05-03T21:02:19.438Z,6.83
2023-05-03T21:04:47.812Z,8.83
2023-05-03T21:07:16.023Z,6.47
2023-05-03T21:09:44.358Z,5.27
2023-05-03T21:12:12.221Z,7.73
2023-05-03T21:14:40.680Z,13.50
2023-05-03T21:17:12.202Z,5.90
2023-05-03T21:19:40.484Z,10.87
2023-05-03T21:22:09.143Z,11.23
2023-05-03T21:24:37.702Z,8.83
2023-05-03T21:27:05.818Z,9.03
2023-05-03T21:29:34.318Z,8.13
2023-05-03T21:32:02.363Z,14.63
2023-05-03T21:34:31.939Z,10.17
2023-05-03T21:37:01.464Z,10.17
2023-05-03T21:39:29.601Z,10.13
2023-05-03T21:41:58.556Z,7.63
2023-05-03T21:44:26.494Z,11.00
2023-05-03T21:46:55.088Z,13.83
2023-05-03T21:49:23.220Z,10.00
2023-05-03T21:51:53.242Z,9.33
2023-05-03T21:54:21.140Z,16.03
2023-05-03T21:56:49.724Z,10.23
2023-05-03T21:59:17.678Z,13.00
2023-05-03T22:01:46.299Z,9.93
2023-05-03T22:04:14.278Z,7.80
2023-05-03T22:06:42.697Z,11.30
2023-05-03T22:09:12.152Z,10.10
2023-05-03T22:11:40.492Z,10.47
2023-05-03T22:14:08.771Z,11.47
2023-05-03T22:16:37.482Z,8.63
2023-05-03T22:19:05.718Z,8.73
2023-05-03T22:21:34.090Z,8.90
2023-05-03T22:24:02.032Z,11.30
2023-05-03T22:26:31.990Z,11.30
2023-05-03T22:29:00.033Z,11.13
2023-05-03T22:31:30.270Z,13.53
2023-05-03T22:33:58.852Z,15.67
2023-05-03T22:36:26.895Z,11.10
2023-05-03T22:39:01.049Z,10.30
2023-05-03T22:41:29.073Z,11.97
2023-05-03T22:43:58.488Z,11.37
2023-05-03T22:46:27.017Z,11.90
2023-05-03T22:48:55.240Z,12.90
2023-05-03T22:51:23.627Z,13.87
2023-05-03T22:53:51.541Z,14.07
2023-05-03T22:56:19.489Z,14.23
2023-05-03T22:58:48.111Z,16.13
2023-05-03T23:01:17.516Z,13.20
2023-05-03T23:03:45.579Z,14.80
2023-05-03T23:06:15.115Z,14.57
2023-05-03T23:08:43.285Z,15.80
2023-05-03T23:11:11.911Z,13.70
2023-05-03T23:13:40.207Z,15.97
2023-05-03T23:16:09.123Z,13.17
2023-05-03T23:18:38.934Z,13.70
2023-05-03T23:21:07.007Z,15.17
2023-05-03T23:23:35.855Z,13.97
2023-05-03T23:26:03.821Z,13.30
2023-05-03T23:28:32.249Z,12.67
2023-05-03T23:31:00.750Z,11.80
2023-05-03T23:33:29.718Z,12.43
2023-05-03T23:35:59.019Z,12.70
2023-05-03T23:38:26.969Z,12.87
2023-05-03T23:40:55.272Z,9.83
2023-05-03T23:43:23.252Z,12.17
2023-05-03T23:45:51.148Z,12.87
2023-05-03T23:48:19.093Z,11.27
2023-05-03T23:50:46.947Z,12.57
2023-05-03T23:53:16.248Z,11.80
2023-05-03T23:55:44.115Z,12.07
2023-05-03T23:58:12.059Z,11.07
